Time;durP1;ratioP1;P1;durP2;ratioP2;P2;SDS_P1;SDS_P2;PMS_P1;PMS_P2;Temp;Humidity;BMP_temperature;BMP_pressure;BME280_temperature;BME280_humidity;BME280_pressure;Samples;Min_cycle;Max_cycle;Signal;HPM_P1;HPM_P2
2022/11/09 00:04:13;;;;;;;4.97;1.63;;;13.60;99.90;;;;;;10456122;28;20013;-62
2022/11/09 00:09:14;;;;;;;3.05;1.70;;;13.60;99.90;;;;;;10458975;28;20033;-61
2022/11/09 00:14:16;;;;;;;2.60;1.38;;;13.60;99.90;;;;;;10458802;28;20025;-62
2022/11/09 00:19:17;;;;;;;3.25;1.50;;;13.60;99.90;;;;;;10459751;28;20066;-63
2022/11/09 00:24:17;;;;;;;4.78;1.77;;;13.60;99.90;;;;;;10458680;28;20017;-62
2022/11/09 00:29:18;;;;;;;4.57;1.40;;;13.60;99.90;;;;;;10457002;28;20077;-62
2022/11/09 00:34:19;;;;;;;3.75;1.73;;;13.60;99.90;;;;;;10458165;28;20543;-62
2022/11/09 00:39:19;;;;;;;2.38;1.48;;;13.60;99.90;;;;;;10460709;28;20033;-61
2022/11/09 00:44:20;;;;;;;3.40;1.73;;;13.60;99.90;;;;;;10458492;28;20037;-62
2022/11/09 00:49:21;;;;;;;5.78;2.22;;;13.60;99.90;;;;;;10457991;28;20036;-62
2022/11/09 00:54:21;;;;;;;4.13;1.90;;;13.60;99.90;;;;;;10458979;28;20124;-63
2022/11/09 00:59:22;;;;;;;2.67;1.58;;;13.60;99.90;;;;;;10458936;28;20028;-62
2022/11/09 01:04:23;;;;;;;5.22;1.70;;;13.60;99.90;;;;;;10456501;28;20071;-62
2022/11/09 01:09:23;;;;;;;3.00;1.80;;;13.60;99.90;;;;;;10458041;28;20029;-61
2022/11/09 01:14:24;;;;;;;2.88;1.88;;;13.60;99.90;;;;;;10459396;28;20029;-62
2022/11/09 01:19:25;;;;;;;2.90;1.88;;;13.60;99.90;;;;;;10459905;28;20029;-61
2022/11/09 01:24:25;;;;;;;2.65;1.48;;;13.60;99.90;;;;;;10452876;28;20500;-61
2022/11/09 01:29:26;;;;;;;2.70;1.63;;;13.60;99.90;;;;;;10452425;28;20075;-61
2022/11/09 01:34:28;;;;;;;3.70;1.52;;;13.60;99.90;;;;;;10453072;28;20036;-61
2022/11/09 01:39:28;;;;;;;3.97;1.60;;;13.60;99.90;;;;;;10453655;28;20032;-61
2022/11/09 01:44:29;;;;;;;6.40;1.85;;;13.60;99.90;;;;;;10458669;28;20048;-61
2022/11/09 01:49:33;;;;;;;2.70;1.80;;;13.60;99.90;;;;;;10452684;28;20071;-62
2022/11/09 01:54:44;;;;;;;4.90;1.50;;;13.60;99.90;;;;;;10455523;28;20455;-61
2022/11/09 01:59:51;;;;;;;3.22;1.50;;;13.60;99.90;;;;;;10451458;28;20024;-62
2022/11/09 02:04:57;;;;;;;2.78;1.83;;;13.60;99.90;;;;;;10457842;28;20035;-62
2022/11/09 02:10:19;;;;;;;2.85;1.40;;;13.60;99.90;;;;;;10452988;28;20040;-62
2022/11/09 02:15:21;;;;;;;4.22;1.75;;;13.60;99.90;;;;;;10451436;28;20356;-61
2022/11/09 02:20:22;;;;;;;3.80;1.50;;;13.50;99.90;;;;;;10453237;28;20035;-62
2022/11/09 02:25:23;;;;;;;3.50;1.58;;;13.50;99.90;;;;;;10452475;28;21224;-61
2022/11/09 02:30:24;;;;;;;5.40;1.60;;;13.50;99.90;;;;;;10456188;28;20261;-62
2022/11/09 02:35:25;;;;;;;5.38;1.73;;;13.50;99.90;;;;;;10456162;28;20026;-62
2022/11/09 02:40:32;;;;;;;4.40;1.65;;;13.50;99.90;;;;;;10457537;28;20051;-62
2022/11/09 02:45:32;;;;;;;3.72;1.73;;;13.50;99.90;;;;;;10454997;28;20521;-63
2022/11/09 02:50:35;;;;;;;4.63;1.58;;;13.50;99.90;;;;;;10453175;28;20091;-62
2022/11/09 02:55:36;;;;;;;3.13;1.55;;;13.50;99.90;;;;;;10455666;28;20032;-62
2022/11/09 03:00:39;;;;;;;5.07;1.50;;;13.50;99.90;;;;;;10454810;28;20040;-61
2022/11/09 03:05:42;;;;;;;3.88;1.33;;;13.50;99.90;;;;;;10454054;28;20029;-62
2022/11/09 03:10:43;;;;;;;2.67;1.30;;;13.50;99.90;;;;;;10454994;28;20044;-62
2022/11/09 03:15:44;;;;;;;2.88;1.55;;;13.50;99.90;;;;;;10451401;28;20025;-62
2022/11/09 03:20:44;;;;;;;4.60;1.27;;;13.50;99.90;;;;;;10447316;28;20033;-61
2022/11/09 03:25:45;;;;;;;2.55;1.33;;;13.50;99.90;;;;;;10453219;28;20485;-62
2022/11/09 03:30:46;;;;;;;3.85;1.20;;;13.50;99.90;;;;;;10449145;28;20045;-61
2022/11/09 03:35:47;;;;;;;7.20;1.40;;;13.50;99.90;;;;;;10454053;28;20045;-62
2022/11/09 03:40:47;;;;;;;4.78;1.30;;;13.50;99.90;;;;;;10461609;28;20115;-61
2022/11/09 03:45:48;;;;;;;1.77;1.23;;;13.50;99.90;;;;;;10460574;28;20340;-61
2022/11/09 03:50:49;;;;;;;2.63;1.20;;;13.40;99.90;;;;;;10454950;28;20517;-62
2022/11/09 03:55:50;;;;;;;4.07;1.38;;;13.40;99.90;;;;;;10459846;28;20504;-62
2022/11/09 04:00:51;;;;;;;2.65;1.40;;;13.50;99.90;;;;;;10460459;28;20432;-61
2022/11/09 04:05:51;;;;;;;1.83;1.30;;;13.40;99.90;;;;;;10461254;28;20078;-62
2022/11/09 04:10:52;;;;;;;2.38;1.27;;;13.50;99.90;;;;;;10461286;28;20037;-61
2022/11/09 04:15:53;;;;;;;4.70;1.35;;;13.40;99.90;;;;;;10459247;28;20025;-62
2022/11/09 04:20:56;;;;;;;4.07;1.20;;;13.40;99.90;;;;;;10458318;28;20024;-61
2022/11/09 04:25:57;;;;;;;3.33;1.40;;;13.40;99.90;;;;;;10458366;28;20337;-62
2022/11/09 04:31:01;;;;;;;7.20;1.60;;;13.40;99.90;;;;;;10461477;28;20033;-62
2022/11/09 04:36:03;;;;;;;5.55;2.65;;;13.40;99.90;;;;;;10457920;28;20062;-63
2022/11/09 04:41:04;;;;;;;4.60;1.60;;;13.40;99.90;;;;;;10448881;28;20140;-63
2022/11/09 04:46:05;;;;;;;7.43;1.63;;;13.40;99.90;;;;;;10457721;28;20044;-62
2022/11/09 04:51:07;;;;;;;3.05;1.40;;;13.40;99.90;;;;;;10460089;28;20296;-62
2022/11/09 04:56:08;;;;;;;3.65;1.55;;;13.40;99.90;;;;;;10457806;28;20252;-61
2022/11/09 05:01:12;;;;;;;3.75;1.13;;;13.30;99.90;;;;;;10458216;28;20025;-62
2022/11/09 05:06:31;;;;;;;4.20;1.60;;;13.40;99.90;;;;;;10452983;28;20477;-62
2022/11/09 05:11:34;;;;;;;2.75;1.60;;;13.30;99.90;;;;;;10455517;28;20102;-61
2022/11/09 05:16:35;;;;;;;2.30;1.05;;;13.30;99.90;;;;;;10458370;28;20508;-62
2022/11/09 05:21:35;;;;;;;3.22;1.15;;;13.30;99.90;;;;;;10456283;28;20043;-61
2022/11/09 05:26:40;;;;;;;7.32;1.60;;;13.30;99.90;;;;;;10453821;28;20112;-61
2022/11/09 05:31:41;;;;;;;2.28;0.98;;;13.30;99.90;;;;;;10458411;28;20127;-62
2022/11/09 05:36:42;;;;;;;2.53;1.25;;;13.30;99.90;;;;;;10455114;28;20031;-61
2022/11/09 05:41:42;;;;;;;3.97;1.60;;;13.30;99.90;;;;;;10458108;28;20040;-61
2022/11/09 05:46:43;;;;;;;3.17;1.50;;;13.30;99.90;;;;;;10455570;28;20098;-62
2022/11/09 05:51:44;;;;;;;2.40;1.10;;;13.30;99.90;;;;;;10455918;28;20564;-63
2022/11/09 05:56:45;;;;;;;3.08;1.30;;;13.30;99.90;;;;;;10457235;28;20037;-61
2022/11/09 06:01:45;;;;;;;7.15;1.95;;;13.30;99.90;;;;;;10456397;28;20029;-62
2022/11/09 06:06:46;;;;;;;3.33;1.23;;;13.30;99.90;;;;;;10458934;28;20039;-62
2022/11/09 06:11:49;;;;;;;4.00;1.05;;;13.30;99.90;;;;;;10454158;28;20068;-62
2022/11/09 06:16:50;;;;;;;3.47;1.23;;;13.30;99.90;;;;;;10454399;28;20044;-61
2022/11/09 06:21:50;;;;;;;2.63;1.17;;;13.30;99.90;;;;;;10455045;28;20045;-62
2022/11/09 06:26:51;;;;;;;3.35;1.08;;;13.30;99.90;;;;;;10448455;28;20029;-62
2022/11/09 06:31:52;;;;;;;2.17;1.05;;;13.20;99.90;;;;;;10457244;28;20025;-62
2022/11/09 06:36:53;;;;;;;3.58;1.45;;;13.20;99.90;;;;;;10454919;28;20071;-62
2022/11/09 06:41:53;;;;;;;2.22;1.20;;;13.20;99.90;;;;;;10457927;28;21339;-62
2022/11/09 06:46:54;;;;;;;6.10;1.27;;;13.20;99.90;;;;;;10453965;28;21082;-61
2022/11/09 06:51:55;;;;;;;3.13;1.10;;;13.20;99.90;;;;;;10453238;28;20037;-62
2022/11/09 06:56:56;;;;;;;4.80;1.48;;;13.30;99.90;;;;;;10449323;28;20528;-61
2022/11/09 07:01:56;;;;;;;5.22;1.30;;;13.20;99.90;;;;;;10436627;28;20064;-62
2022/11/09 07:06:57;;;;;;;4.55;1.10;;;13.20;99.90;;;;;;10445426;28;20032;-61
2022/11/09 07:11:58;;;;;;;3.92;1.00;;;13.20;99.90;;;;;;10416658;28;20788;-62
2022/11/09 07:16:59;;;;;;;2.75;0.98;;;13.20;99.90;;;;;;10359512;28;20033;-62
2022/11/09 07:22:00;;;;;;;3.47;1.17;;;13.20;99.90;;;;;;10366357;28;20620;-63
2022/11/09 07:27:01;;;;;;;6.80;1.20;;;13.20;99.90;;;;;;10377408;28;20041;-61
2022/11/09 07:32:02;;;;;;;3.70;1.30;;;13.20;99.90;;;;;;10369559;28;20041;-64
2022/11/09 07:37:02;;;;;;;3.08;1.20;;;13.20;99.90;;;;;;10368207;28;20448;-63
2022/11/09 07:42:03;;;;;;;3.42;1.13;;;13.20;99.90;;;;;;10371822;28;20195;-65
2022/11/09 07:47:05;;;;;;;3.97;1.20;;;13.20;99.90;;;;;;10368463;28;20592;-62
2022/11/09 07:52:06;;;;;;;3.35;1.13;;;13.20;99.90;;;;;;10359919;28;20096;-62
2022/11/09 07:57:07;;;;;;;3.92;1.00;;;13.30;99.90;;;;;;10363957;28;20505;-61
2022/11/09 08:02:08;;;;;;;1.98;0.95;;;13.20;99.90;;;;;;10380508;28;20056;-62
2022/11/09 08:07:09;;;;;;;2.30;1.02;;;13.30;99.90;;;;;;10368472;28;20866;-63
2022/11/09 08:12:10;;;;;;;2.35;0.90;;;13.30;99.90;;;;;;10376071;28;20164;-64
2022/11/09 08:17:10;;;;;;;4.40;1.60;;;13.30;99.90;;;;;;10373257;28;20040;-65
2022/11/09 08:22:11;;;;;;;2.13;1.05;;;13.30;99.90;;;;;;10384441;28;20033;-62
2022/11/09 08:27:12;;;;;;;4.57;1.10;;;13.30;99.90;;;;;;10380633;28;20103;-63
2022/11/09 08:32:12;;;;;;;3.53;1.10;;;13.40;99.90;;;;;;10382612;28;20611;-63
2022/11/09 08:37:14;;;;;;;3.30;1.30;;;13.40;99.90;;;;;;10378834;28;20032;-62
2022/11/09 08:42:15;;;;;;;5.43;1.30;;;13.50;99.90;;;;;;10364161;28;20622;-62
2022/11/09 08:47:16;;;;;;;4.68;1.42;;;13.50;99.90;;;;;;10376366;28;20111;-62
2022/11/09 08:52:17;;;;;;;3.55;1.02;;;13.60;99.90;;;;;;10379944;28;20846;-64
2022/11/09 08:57:18;;;;;;;4.70;1.50;;;13.70;99.90;;;;;;10381455;28;20029;-62
2022/11/09 09:02:19;;;;;;;3.38;1.08;;;13.70;99.90;;;;;;10371778;28;20044;-62
2022/11/09 09:07:20;;;;;;;4.20;1.10;;;13.70;99.90;;;;;;10370871;28;20325;-62
2022/11/09 09:12:21;;;;;;;4.93;1.48;;;13.70;99.90;;;;;;10380921;28;20481;-62
2022/11/09 09:17:22;;;;;;;8.18;1.45;;;13.70;99.90;;;;;;10377510;28;20406;-62
2022/11/09 09:22:22;;;;;;;1.85;1.10;;;13.60;99.90;;;;;;10378584;28;20040;-64
2022/11/09 09:27:23;;;;;;;4.30;1.45;;;13.80;99.90;;;;;;10386950;28;20143;-61
2022/11/09 09:32:24;;;;;;;5.35;1.60;;;13.80;99.90;;;;;;10378032;28;20048;-60
2022/11/09 09:37:25;;;;;;;4.53;1.65;;;13.80;99.90;;;;;;10385437;28;20025;-62
2022/11/09 09:42:41;;;;;;;3.22;1.35;;;13.80;99.90;;;;;;10383833;28;20568;-61
2022/11/09 09:48:13;;;;;;;3.25;1.23;;;13.90;99.90;;;;;;10377874;28;20130;-61
2022/11/09 09:53:17;;;;;;;4.13;1.35;;;13.80;99.90;;;;;;10378288;28;20064;-61
2022/11/09 09:58:26;;;;;;;6.38;2.17;;;13.80;99.90;;;;;;10377285;28;20127;-61
2022/11/09 10:03:27;;;;;;;6.63;2.35;;;13.80;99.90;;;;;;10372125;28;20124;-61
2022/11/09 10:09:00;;;;;;;4.90;2.30;;;13.90;99.90;;;;;;10379710;28;20033;-61
2022/11/09 10:14:16;;;;;;;5.90;1.73;;;13.90;99.90;;;;;;10360511;28;20595;-61
2022/11/09 10:20:08;;;;;;;4.70;1.70;;;13.90;99.90;;;;;;10368215;28;20039;-61
2022/11/09 10:25:22;;;;;;;3.85;1.63;;;13.90;99.90;;;;;;10311642;28;20563;-61
2022/11/09 10:30:24;;;;;;;3.92;1.70;;;13.90;99.90;;;;;;10368229;28;20040;-61
2022/11/09 10:35:33;;;;;;;3.80;2.05;;;13.90;99.90;;;;;;10378649;28;20033;-60
2022/11/09 10:40:39;;;;;;;6.68;1.92;;;13.90;99.90;;;;;;10368036;28;20238;-62
2022/11/09 10:45:43;;;;;;;4.57;2.20;;;13.90;99.90;;;;;;10372749;28;20075;-62
2022/11/09 10:50:51;;;;;;;7.03;2.53;;;13.90;99.90;;;;;;10372332;28;20560;-63
2022/11/09 10:55:56;;;;;;;5.50;1.97;;;14.00;99.90;;;;;;10378075;28;20036;-63
2022/11/09 11:01:14;;;;;;;3.85;2.10;;;14.00;99.90;;;;;;10375390;28;20976;-63
2022/11/09 11:06:21;;;;;;;;;;;14.00;99.90;;;;;;10371710;28;20029;-63
2022/11/09 11:11:28;;;;;;;6.72;2.25;;;14.00;99.90;;;;;;10378406;28;20460;-62
2022/11/09 11:16:34;;;;;;;7.23;1.93;;;14.00;99.90;;;;;;10376352;28;20503;-62
2022/11/09 11:21:35;;;;;;;8.90;2.30;;;14.00;99.90;;;;;;10372912;28;20114;-60
2022/11/09 11:27:00;;;;;;;7.13;2.30;;;13.90;99.90;;;;;;10369530;28;20206;-62
2022/11/09 11:32:01;;;;;;;4.65;2.28;;;13.90;99.90;;;;;;10378576;28;20041;-61
2022/11/09 11:37:26;;;;;;;7.95;2.03;;;13.90;99.90;;;;;;10375153;28;20553;-63
2022/11/09 11:43:05;;;;;;;6.35;2.50;;;13.90;99.90;;;;;;10361027;28;20139;-61
2022/11/09 11:48:37;;;;;;;6.13;1.70;;;13.90;99.90;;;;;;10264785;28;20058;-61
2022/11/09 11:54:16;;;;;;;6.63;2.03;;;13.90;99.90;;;;;;10363371;28;20142;-60
2022/11/09 11:59:38;;;;;;;3.65;2.40;;;14.00;99.90;;;;;;10358618;28;20048;-64
2022/11/09 12:05:03;;;;;;;6.90;2.35;;;14.00;99.90;;;;;;10390979;28;20036;-60
2022/11/09 12:10:27;;;;;;;6.50;2.17;;;14.00;99.90;;;;;;10388817;28;20159;-60
2022/11/09 12:15:28;;;;;;;5.20;2.65;;;14.00;99.90;;;;;;10377594;28;20460;-64
2022/11/09 12:20:40;;;;;;;5.32;2.55;;;14.00;99.90;;;;;;10392844;28;20037;-60
2022/11/09 12:26:07;;;;;;;6.22;2.38;;;14.00;99.90;;;;;;10393388;28;20054;-61
2022/11/09 12:31:20;;;;;;;5.78;2.03;;;14.00;99.90;;;;;;10380884;28;20041;-60
2022/11/09 12:36:44;;;;;;;9.70;2.47;;;14.00;99.90;;;;;;10379032;28;20754;-59
2022/11/09 12:41:47;;;;;;;4.40;1.85;;;14.00;99.90;;;;;;10383477;28;20471;-60
2022/11/09 12:46:51;;;;;;;4.40;1.88;;;14.00;99.90;;;;;;10384131;28;20122;-61
2022/11/09 12:51:54;;;;;;;5.93;2.20;;;14.00;99.90;;;;;;10382404;28;20041;-60
2022/11/09 12:57:01;;;;;;;4.25;2.10;;;14.00;99.90;;;;;;10378627;28;20593;-63
2022/11/09 13:02:03;;;;;;;4.15;2.05;;;14.00;99.90;;;;;;10370495;28;20255;-64
2022/11/09 13:07:12;;;;;;;6.70;2.15;;;14.00;99.90;;;;;;10383512;28;20043;-65
2022/11/09 13:12:30;;;;;;;3.25;2.13;;;14.10;99.90;;;;;;10375737;28;20036;-62
2022/11/09 13:17:50;;;;;;;4.85;2.22;;;14.20;99.90;;;;;;10376784;28;20519;-62
2022/11/09 13:22:56;;;;;;;6.70;2.28;;;14.20;99.90;;;;;;10376533;28;20043;-60
2022/11/09 13:27:57;;;;;;;3.25;2.00;;;14.30;99.90;;;;;;10370545;28;20102;-61
2022/11/09 13:33:09;;;;;;;4.70;2.03;;;14.20;99.90;;;;;;10372131;28;20071;-61
2022/11/09 13:38:17;;;;;;;5.53;1.80;;;14.20;99.90;;;;;;10373662;28;20135;-62
2022/11/09 13:43:29;;;;;;;5.35;2.08;;;14.20;99.90;;;;;;10377158;28;20358;-61
2022/11/09 13:48:38;;;;;;;3.83;1.83;;;14.20;99.90;;;;;;10373786;28;20048;-62
2022/11/09 13:53:59;;;;;;;3.88;2.00;;;14.20;99.90;;;;;;10371048;28;20182;-62
2022/11/09 13:59:12;;;;;;;4.53;1.75;;;14.20;99.90;;;;;;10371069;28;20540;-61
2022/11/09 14:04:23;;;;;;;2.75;1.40;;;14.20;99.90;;;;;;10351882;28;20029;-63
2022/11/09 14:09:24;;;;;;;3.33;1.80;;;14.20;99.90;;;;;;10368504;28;21037;-64
2022/11/09 14:14:33;;;;;;;5.43;2.28;;;14.10;99.90;;;;;;10354820;28;21244;-62
2022/11/09 14:20:15;;;;;;;2.95;1.60;;;14.10;99.90;;;;;;10371432;28;20454;-62
2022/11/09 14:25:19;;;;;;;2.45;1.52;;;14.10;99.90;;;;;;10356898;28;20118;-61
2022/11/09 14:30:25;;;;;;;4.03;1.80;;;14.10;99.90;;;;;;10365045;28;20432;-62
2022/11/09 14:35:36;;;;;;;4.57;1.95;;;14.10;99.90;;;;;;10370465;28;20312;-63
2022/11/09 14:40:42;;;;;;;3.78;1.67;;;14.10;99.90;;;;;;10377358;28;20033;-66
2022/11/09 14:45:55;;;;;;;3.60;1.80;;;14.00;99.90;;;;;;10380051;28;20091;-61
2022/11/09 14:51:01;;;;;;;14.45;2.95;;;14.00;99.90;;;;;;10370012;28;20040;-64
2022/11/09 14:56:07;;;;;;;9.32;2.33;;;14.10;99.90;;;;;;10361230;28;20135;-64
2022/11/09 15:01:17;;;;;;;5.95;2.08;;;14.00;99.90;;;;;;10371252;28;20261;-64
2022/11/09 15:06:17;;;;;;;3.72;1.88;;;14.00;99.90;;;;;;10360854;28;20031;-64
2022/11/09 15:11:19;;;;;;;4.90;2.00;;;14.00;99.90;;;;;;10361300;28;20080;-63
2022/11/09 15:16:22;;;;;;;3.70;2.60;;;14.00;99.90;;;;;;10369264;28;20032;-63
2022/11/09 15:21:23;;;;;;;8.45;1.83;;;14.00;99.90;;;;;;10375886;28;20024;-63
2022/11/09 15:26:27;;;;;;;4.72;1.73;;;13.90;99.90;;;;;;10371532;28;20119;-64
2022/11/09 15:31:28;;;;;;;2.92;1.80;;;13.90;99.90;;;;;;10375990;28;20413;-65
2022/11/09 15:36:34;;;;;;;6.80;1.83;;;13.90;99.90;;;;;;10377822;28;20094;-64
2022/11/09 15:41:36;;;;;;;3.90;1.60;;;13.90;99.90;;;;;;10379397;28;20113;-63
2022/11/09 15:46:51;;;;;;;4.60;2.17;;;13.70;99.90;;;;;;10372848;28;20053;-64
2022/11/09 15:51:53;;;;;;;3.88;1.65;;;13.90;99.90;;;;;;10371584;28;20036;-64
2022/11/09 15:56:54;;;;;;;4.40;1.70;;;13.80;99.90;;;;;;10363994;28;20044;-63
2022/11/09 16:01:59;;;;;;;2.92;1.45;;;13.80;99.90;;;;;;10371277;28;20611;-65
2022/11/09 16:07:00;;;;;;;2.97;1.50;;;13.80;99.90;;;;;;10368553;28;20033;-63
2022/11/09 16:12:01;;;;;;;6.00;1.70;;;13.80;99.90;;;;;;10404808;28;20575;-64
2022/11/09 16:17:02;;;;;;;2.65;1.60;;;13.80;99.90;;;;;;10364534;28;20051;-63
2022/11/09 16:22:04;;;;;;;2.90;1.73;;;13.80;99.90;;;;;;10428592;28;20041;-63
2022/11/09 16:27:06;;;;;;;1.85;1.17;;;13.80;99.90;;;;;;10455069;28;20052;-63
2022/11/09 16:32:06;;;;;;;5.13;1.60;;;13.80;99.90;;;;;;10452813;28;20040;-63
2022/11/09 16:37:07;;;;;;;1.60;1.25;;;13.70;99.90;;;;;;10447093;28;20029;-63
2022/11/09 16:42:10;;;;;;;3.75;1.50;;;13.70;99.90;;;;;;10450212;28;20037;-63
2022/11/09 16:47:14;;;;;;;3.33;1.30;;;13.70;99.90;;;;;;10454754;28;20045;-64
2022/11/09 16:52:15;;;;;;;4.18;1.60;;;13.70;99.90;;;;;;10449731;28;20112;-63
2022/11/09 16:57:15;;;;;;;2.15;1.35;;;13.70;99.90;;;;;;10451124;28;20058;-63
2022/11/09 17:02:16;;;;;;;3.00;1.50;;;13.70;99.90;;;;;;10455720;28;20029;-63
2022/11/09 17:07:17;;;;;;;2.95;1.25;;;13.70;99.90;;;;;;10446302;28;20029;-63
2022/11/09 17:12:18;;;;;;;6.72;1.60;;;13.70;99.90;;;;;;10453285;28;20037;-63
2022/11/09 17:17:18;;;;;;;6.88;1.55;;;13.70;99.90;;;;;;10447235;28;20028;-64
2022/11/09 17:22:19;;;;;;;4.13;1.20;;;13.70;99.90;;;;;;10455260;28;20033;-63
2022/11/09 17:27:20;;;;;;;4.28;1.52;;;13.60;99.90;;;;;;10439957;28;20032;-64
2022/11/09 17:32:24;;;;;;;2.90;1.20;;;13.60;99.90;;;;;;10452630;28;20036;-64
2022/11/09 17:37:25;;;;;;;3.47;1.60;;;13.60;99.90;;;;;;10450300;28;20142;-68
2022/11/09 17:42:26;;;;;;;3.47;1.15;;;13.60;99.90;;;;;;10447702;28;20033;-65
2022/11/09 17:47:26;;;;;;;3.40;1.25;;;13.60;99.90;;;;;;10435816;28;20127;-64
2022/11/09 17:52:27;;;;;;;3.97;1.48;;;13.60;99.90;;;;;;10452903;28;20060;-63
2022/11/09 17:57:28;;;;;;;5.22;1.40;;;13.60;99.90;;;;;;10440679;28;20026;-64
2022/11/09 18:02:29;;;;;;;2.50;1.20;;;13.60;99.90;;;;;;10449512;28;20041;-63
2022/11/09 18:07:29;;;;;;;4.85;1.25;;;13.60;99.90;;;;;;10441873;28;20449;-64
2022/11/09 18:12:30;;;;;;;6.82;1.65;;;13.60;99.90;;;;;;10454441;28;20412;-64
2022/11/09 18:17:31;;;;;;;6.53;1.70;;;13.60;99.90;;;;;;10444240;28;21181;-64
2022/11/09 18:22:32;;;;;;;3.45;1.20;;;13.60;99.90;;;;;;10437458;28;20033;-64
2022/11/09 18:27:32;;;;;;;5.88;1.10;;;13.60;99.90;;;;;;10423602;28;20033;-64
2022/11/09 18:32:33;;;;;;;3.97;1.27;;;13.60;99.90;;;;;;10428371;28;20049;-63
2022/11/09 18:37:37;;;;;;;1.33;1.00;;;13.50;99.90;;;;;;10423846;28;20750;-64
2022/11/09 18:42:38;;;;;;;2.40;1.02;;;13.50;99.90;;;;;;10431668;28;20076;-68
2022/11/09 18:47:39;;;;;;;5.30;1.63;;;13.50;99.90;;;;;;10425646;28;20179;-64
2022/11/09 18:52:39;;;;;;;4.22;1.13;;;13.50;99.90;;;;;;10427306;28;20402;-63
2022/11/09 18:57:40;;;;;;;7.43;1.63;;;13.50;99.90;;;;;;10419774;28;20083;-64
2022/11/09 19:02:41;;;;;;;4.18;1.20;;;13.50;99.90;;;;;;10432488;28;20056;-64
2022/11/09 19:07:42;;;;;;;2.78;1.05;;;13.50;99.90;;;;;;10438974;28;20195;-64
2022/11/09 19:12:42;;;;;;;3.83;1.10;;;13.50;99.90;;;;;;10437619;28;20039;-64
2022/11/09 19:17:43;;;;;;;2.70;1.08;;;13.50;99.90;;;;;;10432947;28;20029;-63
2022/11/09 19:22:44;;;;;;;4.88;1.13;;;13.50;99.90;;;;;;10430509;28;20033;-63
2022/11/09 19:27:44;;;;;;;3.42;0.90;;;13.40;99.90;;;;;;10428278;28;20379;-64
2022/11/09 19:32:45;;;;;;;4.72;1.92;;;13.40;99.90;;;;;;10434709;28;20131;-63
2022/11/09 19:37:46;;;;;;;2.47;0.80;;;13.40;99.90;;;;;;10435617;28;20025;-64
2022/11/09 19:42:46;;;;;;;4.20;1.30;;;13.40;99.90;;;;;;10440713;28;20135;-64
2022/11/09 19:47:48;;;;;;;3.28;0.95;;;13.50;99.90;;;;;;10434316;28;20398;-64
2022/11/09 19:52:49;;;;;;;3.65;0.93;;;13.40;99.90;;;;;;10435000;28;20049;-63
2022/11/09 19:57:49;;;;;;;1.85;1.10;;;13.40;99.90;;;;;;10432282;28;20099;-63
2022/11/09 20:02:50;;;;;;;3.45;1.00;;;13.20;99.90;;;;;;10435015;28;20036;-64
2022/11/09 20:07:51;;;;;;;5.40;1.30;;;13.40;99.90;;;;;;10435614;28;20424;-64
2022/11/09 20:12:53;;;;;;;3.45;0.90;;;13.40;99.90;;;;;;10431897;28;20099;-64
2022/11/09 20:17:54;;;;;;;2.95;1.02;;;13.40;99.90;;;;;;10429963;28;20040;-64
2022/11/09 20:22:54;;;;;;;5.30;1.27;;;13.40;99.90;;;;;;10437740;28;20055;-63
2022/11/09 20:27:55;;;;;;;2.95;1.10;;;13.40;99.90;;;;;;10435465;28;20167;-63
2022/11/09 20:32:56;;;;;;;1.70;0.90;;;13.40;99.90;;;;;;10438534;28;20071;-64
2022/11/09 20:37:57;;;;;;;2.88;0.90;;;13.40;99.90;;;;;;10431814;28;20546;-64
2022/11/09 20:42:57;;;;;;;2.17;0.98;;;13.30;99.90;;;;;;10443936;28;20095;-64
2022/11/09 20:47:58;;;;;;;3.05;1.00;;;13.30;99.90;;;;;;10432658;28;20044;-64
2022/11/09 20:52:59;;;;;;;3.85;1.02;;;13.30;99.90;;;;;;10434911;28;20091;-64
2022/11/09 20:58:00;;;;;;;2.13;0.70;;;13.30;99.90;;;;;;10438325;28;20486;-63
2022/11/09 21:03:00;;;;;;;2.90;0.70;;;13.30;99.90;;;;;;10438905;28;20045;-64
2022/11/09 21:08:01;;;;;;;3.90;1.00;;;13.30;99.90;;;;;;10435872;28;20039;-64
2022/11/09 21:13:01;;;;;;;2.53;1.08;;;13.20;99.90;;;;;;10439324;28;20076;-64
2022/11/09 21:18:02;;;;;;;3.38;1.27;;;13.20;99.90;;;;;;10438321;28;20017;-64
2022/11/09 21:33:34;;;;;;;2.38;0.93;;;13.20;99.90;;;;;;10436388;28;20559;-64
2022/11/09 21:38:37;;;;;;;2.00;0.95;;;13.20;99.90;;;;;;10434006;28;20112;-64
2022/11/09 21:43:37;;;;;;;2.85;1.10;;;13.20;99.90;;;;;;10440382;28;20037;-64
2022/11/09 21:48:38;;;;;;;4.13;1.33;;;13.10;99.90;;;;;;10436680;28;20049;-63
2022/11/09 21:53:39;;;;;;;4.00;1.20;;;13.10;99.90;;;;;;10434044;28;20032;-64
2022/11/09 21:58:39;;;;;;;2.30;0.88;;;13.10;99.90;;;;;;10436694;28;20017;-64
2022/11/09 22:03:46;;;;;;;2.83;1.30;;;13.10;99.90;;;;;;10436138;28;20036;-63
2022/11/09 22:08:48;;;;;;;4.00;1.10;;;13.10;99.90;;;;;;10436768;28;20029;-64
2022/11/09 22:24:27;;;;;;;3.10;1.08;;;13.10;99.90;;;;;;10438359;28;20835;-64
2022/11/09 22:29:28;;;;;;;3.72;1.40;;;13.10;99.90;;;;;;10443512;28;20031;-63
2022/11/09 22:34:29;;;;;;;5.00;1.38;;;13.00;99.90;;;;;;10453975;28;20511;-64
2022/11/09 22:39:29;;;;;;;3.53;1.40;;;13.00;99.90;;;;;;10442334;28;20023;-63
2022/11/09 22:44:48;;;;;;;2.92;0.90;;;13.00;99.90;;;;;;10445656;28;20413;-63
2022/11/09 22:49:49;;;;;;;2.17;0.80;;;13.00;99.90;;;;;;10441090;28;20124;-63
2022/11/09 22:54:49;;;;;;;6.00;1.42;;;13.00;99.90;;;;;;10440031;28;20401;-64
2022/11/09 22:59:50;;;;;;;5.82;1.00;;;13.00;99.90;;;;;;10445590;28;20587;-63
2022/11/09 23:04:51;;;;;;;2.13;1.00;;;13.00;99.90;;;;;;10442648;28;20315;-63
2022/11/09 23:09:51;;;;;;;5.03;1.50;;;13.00;99.90;;;;;;10455449;28;20036;-63
2022/11/09 23:15:04;;;;;;;3.15;1.20;;;12.90;99.90;;;;;;10455354;28;20025;-63
2022/11/09 23:20:05;;;;;;;1.63;1.00;;;12.90;99.90;;;;;;10455859;28;20020;-63
2022/11/09 23:30:29;;;;;;;2.40;1.05;;;12.90;99.90;;;;;;10450246;28;20571;-63
2022/11/09 23:35:30;;;;;;;2.58;0.80;;;12.70;99.90;;;;;;10448320;28;20119;-63
2022/11/09 23:40:32;;;;;;;4.10;1.25;;;12.90;99.90;;;;;;10454312;28;20700;-63
2022/11/09 23:45:34;;;;;;;4.68;1.23;;;12.90;99.90;;;;;;10454993;28;20167;-63
2022/11/09 23:50:34;;;;;;;4.32;1.13;;;12.90;99.90;;;;;;10451122;28;20037;-64
2022/11/09 23:55:36;;;;;;;3.88;1.20;;;12.90;99.90;;;;;;10462053;28;20037;-63
